sensor_id;sensor_type;location;lat;lon;timestamp;P1;durP1;ratioP1;P2;durP2;ratioP2
75990;SDS011;64673;52.276;10.560;2023-04-25T00:00:27;7.13;;;2.58;;
75990;SDS011;64673;52.276;10.560;2023-04-25T00:02:53;11.15;;;2.70;;
75990;SDS011;64673;52.276;10.560;2023-04-25T00:07:47;7.30;;;2.28;;
75990;SDS011;64673;52.276;10.560;2023-04-25T00:10:13;7.75;;;2.63;;
75990;SDS011;64673;52.276;10.560;2023-04-25T00:12:39;10.63;;;2.20;;
75990;SDS011;64673;52.276;10.560;2023-04-25T00:15:05;10.30;;;2.33;;
75990;SDS011;64673;52.276;10.560;2023-04-25T00:17:31;7.65;;;2.30;;
75990;SDS011;64673;52.276;10.560;2023-04-25T00:19:56;7.80;;;2.13;;
75990;SDS011;64673;52.276;10.560;2023-04-25T00:22:23;5.85;;;2.22;;
75990;SDS011;64673;52.276;10.560;2023-04-25T00:24:48;9.43;;;2.50;;
75990;SDS011;64673;52.276;10.560;2023-04-25T00:27:14;9.70;;;3.20;;
75990;SDS011;64673;52.276;10.560;2023-04-25T00:29:39;8.35;;;2.63;;
75990;SDS011;64673;52.276;10.560;2023-04-25T00:32:04;7.72;;;2.08;;
75990;SDS011;64673;52.276;10.560;2023-04-25T00:34:30;10.15;;;2.65;;
75990;SDS011;64673;52.276;10.560;2023-04-25T00:36:55;9.18;;;2.67;;
75990;SDS011;64673;52.276;10.560;2023-04-25T00:39:21;8.57;;;2.53;;
75990;SDS011;64673;52.276;10.560;2023-04-25T00:41:47;5.30;;;1.48;;
75990;SDS011;64673;52.276;10.560;2023-04-25T00:44:13;7.40;;;2.28;;
75990;SDS011;64673;52.276;10.560;2023-04-25T00:46:42;7.53;;;3.17;;
75990;SDS011;64673;52.276;10.560;2023-04-25T00:49:07;9.02;;;2.40;;
75990;SDS011;64673;52.276;10.560;2023-04-25T00:51:32;6.38;;;2.72;;
75990;SDS011;64673;52.276;10.560;2023-04-25T00:53:58;6.90;;;2.22;;
75990;SDS011;64673;52.276;10.560;2023-04-25T00:56:24;6.88;;;2.65;;
75990;SDS011;64673;52.276;10.560;2023-04-25T00:58:50;6.78;;;2.42;;
75990;SDS011;64673;52.276;10.560;2023-04-25T01:01:19;5.05;;;2.03;;
75990;SDS011;64673;52.276;10.560;2023-04-25T01:03:44;8.15;;;2.80;;
75990;SDS011;64673;52.276;10.560;2023-04-25T01:06:11;7.20;;;2.42;;
75990;SDS011;64673;52.276;10.560;2023-04-25T01:08:37;5.63;;;2.05;;
75990;SDS011;64673;52.276;10.560;2023-04-25T01:11:04;9.27;;;3.03;;
75990;SDS011;64673;52.276;10.560;2023-04-25T01:13:30;14.18;;;2.30;;
75990;SDS011;64673;52.276;10.560;2023-04-25T01:15:56;5.95;;;2.55;;
75990;SDS011;64673;52.276;10.560;2023-04-25T01:18:22;5.43;;;2.20;;
75990;SDS011;64673;52.276;10.560;2023-04-25T01:20:49;8.50;;;2.90;;
75990;SDS011;64673;52.276;10.560;2023-04-25T01:23:16;6.68;;;2.35;;
75990;SDS011;64673;52.276;10.560;2023-04-25T01:25:41;9.52;;;2.72;;
75990;SDS011;64673;52.276;10.560;2023-04-25T01:28:07;7.45;;;2.40;;
75990;SDS011;64673;52.276;10.560;2023-04-25T01:30:32;11.80;;;2.58;;
75990;SDS011;64673;52.276;10.560;2023-04-25T01:32:59;7.40;;;2.25;;
75990;SDS011;64673;52.276;10.560;2023-04-25T01:35:25;7.53;;;2.35;;
75990;SDS011;64673;52.276;10.560;2023-04-25T01:37:50;8.07;;;2.53;;
75990;SDS011;64673;52.276;10.560;2023-04-25T01:40:16;8.52;;;2.40;;
75990;SDS011;64673;52.276;10.560;2023-04-25T01:42:44;7.72;;;2.60;;
75990;SDS011;64673;52.276;10.560;2023-04-25T01:45:10;10.75;;;3.00;;
75990;SDS011;64673;52.276;10.560;2023-04-25T01:47:37;8.57;;;2.80;;
75990;SDS011;64673;52.276;10.560;2023-04-25T01:50:05;6.10;;;2.20;;
75990;SDS011;64673;52.276;10.560;2023-04-25T01:52:31;8.10;;;2.88;;
75990;SDS011;64673;52.276;10.560;2023-04-25T01:54:57;8.88;;;2.65;;
75990;SDS011;64673;52.276;10.560;2023-04-25T01:57:24;7.75;;;2.60;;
75990;SDS011;64673;52.276;10.560;2023-04-25T01:59:49;9.30;;;3.40;;
75990;SDS011;64673;52.276;10.560;2023-04-25T02:02:15;9.45;;;3.17;;
75990;SDS011;64673;52.276;10.560;2023-04-25T02:04:40;5.70;;;2.83;;
75990;SDS011;64673;52.276;10.560;2023-04-25T02:07:05;8.45;;;3.00;;
75990;SDS011;64673;52.276;10.560;2023-04-25T02:09:31;6.90;;;2.67;;
75990;SDS011;64673;52.276;10.560;2023-04-25T02:11:56;9.88;;;3.15;;
75990;SDS011;64673;52.276;10.560;2023-04-25T02:14:22;9.30;;;3.15;;
75990;SDS011;64673;52.276;10.560;2023-04-25T02:16:48;7.60;;;3.03;;
75990;SDS011;64673;52.276;10.560;2023-04-25T02:19:13;8.13;;;3.17;;
75990;SDS011;64673;52.276;10.560;2023-04-25T02:21:38;8.60;;;3.25;;
75990;SDS011;64673;52.276;10.560;2023-04-25T02:24:04;9.45;;;3.13;;
75990;SDS011;64673;52.276;10.560;2023-04-25T02:26:29;9.10;;;2.97;;
75990;SDS011;64673;52.276;10.560;2023-04-25T02:28:56;11.95;;;3.25;;
75990;SDS011;64673;52.276;10.560;2023-04-25T02:31:21;11.00;;;3.50;;
75990;SDS011;64673;52.276;10.560;2023-04-25T02:33:47;8.82;;;3.05;;
75990;SDS011;64673;52.276;10.560;2023-04-25T02:36:12;10.20;;;2.95;;
75990;SDS011;64673;52.276;10.560;2023-04-25T02:38:38;8.73;;;3.20;;
75990;SDS011;64673;52.276;10.560;2023-04-25T02:41:03;7.82;;;3.45;;
75990;SDS011;64673;52.276;10.560;2023-04-25T02:43:29;9.73;;;3.40;;
75990;SDS011;64673;52.276;10.560;2023-04-25T02:45:54;8.88;;;3.75;;
75990;SDS011;64673;52.276;10.560;2023-04-25T02:48:20;10.18;;;3.85;;
75990;SDS011;64673;52.276;10.560;2023-04-25T02:50:45;11.65;;;3.22;;
75990;SDS011;64673;52.276;10.560;2023-04-25T02:53:10;11.88;;;3.83;;
75990;SDS011;64673;52.276;10.560;2023-04-25T02:55:36;9.70;;;3.42;;
75990;SDS011;64673;52.276;10.560;2023-04-25T02:58:01;12.32;;;3.85;;
75990;SDS011;64673;52.276;10.560;2023-04-25T03:00:27;9.45;;;3.70;;
75990;SDS011;64673;52.276;10.560;2023-04-25T03:02:52;7.68;;;2.97;;
75990;SDS011;64673;52.276;10.560;2023-04-25T03:05:17;12.50;;;4.63;;
75990;SDS011;64673;52.276;10.560;2023-04-25T03:07:43;11.27;;;4.10;;
75990;SDS011;64673;52.276;10.560;2023-04-25T03:10:09;9.32;;;3.85;;
75990;SDS011;64673;52.276;10.560;2023-04-25T03:12:35;8.60;;;3.65;;
75990;SDS011;64673;52.276;10.560;2023-04-25T03:15:01;11.05;;;4.22;;
75990;SDS011;64673;52.276;10.560;2023-04-25T03:17:27;9.95;;;3.85;;
75990;SDS011;64673;52.276;10.560;2023-04-25T03:19:52;8.85;;;3.25;;
75990;SDS011;64673;52.276;10.560;2023-04-25T03:22:17;8.88;;;3.95;;
75990;SDS011;64673;52.276;10.560;2023-04-25T03:24:43;9.75;;;4.20;;
75990;SDS011;64673;52.276;10.560;2023-04-25T03:27:08;10.85;;;4.13;;
75990;SDS011;64673;52.276;10.560;2023-04-25T03:29:34;12.23;;;4.60;;
75990;SDS011;64673;52.276;10.560;2023-04-25T03:31:59;12.93;;;4.80;;
75990;SDS011;64673;52.276;10.560;2023-04-25T03:34:24;11.52;;;4.43;;
75990;SDS011;64673;52.276;10.560;2023-04-25T03:36:52;12.55;;;4.43;;
75990;SDS011;64673;52.276;10.560;2023-04-25T03:39:17;11.98;;;4.40;;
75990;SDS011;64673;52.276;10.560;2023-04-25T03:41:42;16.45;;;5.18;;
75990;SDS011;64673;52.276;10.560;2023-04-25T03:44:08;14.68;;;5.07;;
75990;SDS011;64673;52.276;10.560;2023-04-25T03:46:33;12.95;;;5.40;;
75990;SDS011;64673;52.276;10.560;2023-04-25T03:48:58;14.23;;;4.95;;
75990;SDS011;64673;52.276;10.560;2023-04-25T03:51:24;12.88;;;4.88;;
75990;SDS011;64673;52.276;10.560;2023-04-25T03:53:50;18.50;;;5.22;;
75990;SDS011;64673;52.276;10.560;2023-04-25T03:56:16;14.55;;;3.50;;
75990;SDS011;64673;52.276;10.560;2023-04-25T03:58:41;13.02;;;3.22;;
75990;SDS011;64673;52.276;10.560;2023-04-25T04:01:07;10.07;;;3.47;;
75990;SDS011;64673;52.276;10.560;2023-04-25T04:03:33;9.13;;;3.50;;
75990;SDS011;64673;52.276;10.560;2023-04-25T04:06:00;13.98;;;2.95;;
75990;SDS011;64673;52.276;10.560;2023-04-25T04:08:26;12.02;;;3.17;;
75990;SDS011;64673;52.276;10.560;2023-04-25T04:10:51;10.77;;;3.03;;
75990;SDS011;64673;52.276;10.560;2023-04-25T04:13:16;8.70;;;2.67;;
75990;SDS011;64673;52.276;10.560;2023-04-25T04:15:42;10.95;;;2.88;;
75990;SDS011;64673;52.276;10.560;2023-04-25T04:18:07;10.68;;;3.53;;
75990;SDS011;64673;52.276;10.560;2023-04-25T04:20:33;8.38;;;2.70;;
75990;SDS011;64673;52.276;10.560;2023-04-25T04:22:58;8.45;;;2.75;;
75990;SDS011;64673;52.276;10.560;2023-04-25T04:25:23;8.52;;;2.95;;
75990;SDS011;64673;52.276;10.560;2023-04-25T04:27:49;9.65;;;2.78;;
75990;SDS011;64673;52.276;10.560;2023-04-25T04:30:19;6.80;;;2.25;;
75990;SDS011;64673;52.276;10.560;2023-04-25T04:32:54;12.68;;;3.22;;
75990;SDS011;64673;52.276;10.560;2023-04-25T04:35:20;5.82;;;2.13;;
75990;SDS011;64673;52.276;10.560;2023-04-25T04:37:46;11.48;;;2.83;;
75990;SDS011;64673;52.276;10.560;2023-04-25T04:40:12;9.82;;;2.90;;
75990;SDS011;64673;52.276;10.560;2023-04-25T04:42:40;9.70;;;2.80;;
75990;SDS011;64673;52.276;10.560;2023-04-25T04:45:06;12.77;;;2.40;;
75990;SDS011;64673;52.276;10.560;2023-04-25T04:47:32;14.38;;;3.03;;
75990;SDS011;64673;52.276;10.560;2023-04-25T04:49:58;10.90;;;3.28;;
75990;SDS011;64673;52.276;10.560;2023-04-25T04:52:24;10.15;;;2.60;;
75990;SDS011;64673;52.276;10.560;2023-04-25T04:54:49;6.95;;;2.35;;
75990;SDS011;64673;52.276;10.560;2023-04-25T04:57:15;13.77;;;2.90;;
75990;SDS011;64673;52.276;10.560;2023-04-25T04:59:41;9.32;;;2.17;;
75990;SDS011;64673;52.276;10.560;2023-04-25T05:02:07;12.30;;;2.75;;
75990;SDS011;64673;52.276;10.560;2023-04-25T05:04:32;12.90;;;2.58;;
75990;SDS011;64673;52.276;10.560;2023-04-25T05:06:57;10.55;;;2.65;;
75990;SDS011;64673;52.276;10.560;2023-04-25T05:09:23;15.85;;;2.65;;
75990;SDS011;64673;52.276;10.560;2023-04-25T05:11:50;9.27;;;2.40;;
75990;SDS011;64673;52.276;10.560;2023-04-25T05:14:16;10.00;;;2.97;;
75990;SDS011;64673;52.276;10.560;2023-04-25T05:16:42;10.25;;;2.53;;
75990;SDS011;64673;52.276;10.560;2023-04-25T05:19:08;9.57;;;2.70;;
75990;SDS011;64673;52.276;10.560;2023-04-25T05:21:34;14.57;;;2.72;;
75990;SDS011;64673;52.276;10.560;2023-04-25T05:23:59;16.38;;;3.00;;
75990;SDS011;64673;52.276;10.560;2023-04-25T05:26:25;11.88;;;2.70;;
75990;SDS011;64673;52.276;10.560;2023-04-25T05:28:51;10.48;;;2.35;;
75990;SDS011;64673;52.276;10.560;2023-04-25T05:31:16;10.52;;;2.33;;
75990;SDS011;64673;52.276;10.560;2023-04-25T05:33:41;7.32;;;2.25;;
75990;SDS011;64673;52.276;10.560;2023-04-25T05:36:07;12.60;;;2.50;;
75990;SDS011;64673;52.276;10.560;2023-04-25T05:38:32;13.45;;;2.28;;
75990;SDS011;64673;52.276;10.560;2023-04-25T05:40:58;7.07;;;2.20;;
75990;SDS011;64673;52.276;10.560;2023-04-25T05:43:23;9.57;;;1.77;;
75990;SDS011;64673;52.276;10.560;2023-04-25T05:45:48;15.18;;;2.50;;
75990;SDS011;64673;52.276;10.560;2023-04-25T05:48:14;8.18;;;2.17;;
75990;SDS011;64673;52.276;10.560;2023-04-25T05:50:39;14.32;;;2.63;;
75990;SDS011;64673;52.276;10.560;2023-04-25T05:53:05;14.13;;;2.22;;
75990;SDS011;64673;52.276;10.560;2023-04-25T05:55:30;11.50;;;2.30;;
75990;SDS011;64673;52.276;10.560;2023-04-25T05:57:56;10.57;;;2.35;;
75990;SDS011;64673;52.276;10.560;2023-04-25T06:00:21;11.68;;;2.10;;
75990;SDS011;64673;52.276;10.560;2023-04-25T06:02:47;13.48;;;2.20;;
75990;SDS011;64673;52.276;10.560;2023-04-25T06:05:13;13.07;;;1.98;;
75990;SDS011;64673;52.276;10.560;2023-04-25T06:07:38;15.45;;;1.92;;
75990;SDS011;64673;52.276;10.560;2023-04-25T06:10:04;11.45;;;1.70;;
75990;SDS011;64673;52.276;10.560;2023-04-25T06:12:31;11.82;;;2.67;;
75990;SDS011;64673;52.276;10.560;2023-04-25T06:14:58;13.35;;;1.90;;
75990;SDS011;64673;52.276;10.560;2023-04-25T06:17:23;19.00;;;2.25;;
75990;SDS011;64673;52.276;10.560;2023-04-25T06:19:48;7.05;;;1.65;;
75990;SDS011;64673;52.276;10.560;2023-04-25T06:22:14;15.57;;;2.70;;
75990;SDS011;64673;52.276;10.560;2023-04-25T06:24:39;12.30;;;2.35;;
75990;SDS011;64673;52.276;10.560;2023-04-25T06:27:04;13.20;;;2.08;;
75990;SDS011;64673;52.276;10.560;2023-04-25T06:29:30;11.85;;;1.80;;
75990;SDS011;64673;52.276;10.560;2023-04-25T06:31:55;8.13;;;1.92;;
75990;SDS011;64673;52.276;10.560;2023-04-25T06:34:22;16.30;;;3.15;;
75990;SDS011;64673;52.276;10.560;2023-04-25T06:36:47;10.38;;;2.10;;
75990;SDS011;64673;52.276;10.560;2023-04-25T06:39:12;14.48;;;2.38;;
75990;SDS011;64673;52.276;10.560;2023-04-25T06:41:38;7.68;;;1.70;;
75990;SDS011;64673;52.276;10.560;2023-04-25T06:44:03;8.77;;;2.10;;
75990;SDS011;64673;52.276;10.560;2023-04-25T06:46:28;8.55;;;2.22;;
75990;SDS011;64673;52.276;10.560;2023-04-25T06:48:54;10.35;;;2.13;;
75990;SDS011;64673;52.276;10.560;2023-04-25T06:51:20;11.15;;;2.25;;
75990;SDS011;64673;52.276;10.560;2023-04-25T06:53:45;12.02;;;2.33;;
75990;SDS011;64673;52.276;10.560;2023-04-25T06:56:10;9.23;;;1.98;;
75990;SDS011;64673;52.276;10.560;2023-04-25T06:58:36;11.90;;;1.95;;
75990;SDS011;64673;52.276;10.560;2023-04-25T07:01:01;6.78;;;1.52;;
75990;SDS011;64673;52.276;10.560;2023-04-25T07:03:26;9.27;;;1.45;;
75990;SDS011;64673;52.276;10.560;2023-04-25T07:05:52;4.40;;;1.10;;
75990;SDS011;64673;52.276;10.560;2023-04-25T07:08:17;7.78;;;1.30;;
75990;SDS011;64673;52.276;10.560;2023-04-25T07:10:42;11.82;;;1.60;;
75990;SDS011;64673;52.276;10.560;2023-04-25T07:13:08;10.30;;;1.33;;
75990;SDS011;64673;52.276;10.560;2023-04-25T07:15:33;10.20;;;1.50;;
75990;SDS011;64673;52.276;10.560;2023-04-25T07:17:59;8.98;;;1.65;;
75990;SDS011;64673;52.276;10.560;2023-04-25T07:20:24;6.47;;;0.80;;
75990;SDS011;64673;52.276;10.560;2023-04-25T07:22:49;6.65;;;1.40;;
75990;SDS011;64673;52.276;10.560;2023-04-25T07:25:15;7.03;;;1.27;;
75990;SDS011;64673;52.276;10.560;2023-04-25T07:27:41;8.82;;;1.02;;
75990;SDS011;64673;52.276;10.560;2023-04-25T07:30:07;8.65;;;1.05;;
75990;SDS011;64673;52.276;10.560;2023-04-25T07:32:33;5.40;;;0.90;;
75990;SDS011;64673;52.276;10.560;2023-04-25T07:34:58;5.13;;;0.93;;
75990;SDS011;64673;52.276;10.560;2023-04-25T07:37:23;5.50;;;1.02;;
75990;SDS011;64673;52.276;10.560;2023-04-25T07:39:49;7.22;;;1.20;;
75990;SDS011;64673;52.276;10.560;2023-04-25T07:42:14;5.18;;;1.00;;
75990;SDS011;64673;52.276;10.560;2023-04-25T07:44:39;12.30;;;1.50;;
75990;SDS011;64673;52.276;10.560;2023-04-25T07:47:08;2.78;;;1.08;;
75990;SDS011;64673;52.276;10.560;2023-04-25T07:49:35;14.05;;;1.10;;
75990;SDS011;64673;52.276;10.560;2023-04-25T07:52:01;5.57;;;0.80;;
75990;SDS011;64673;52.276;10.560;2023-04-25T07:54:27;7.90;;;0.80;;
75990;SDS011;64673;52.276;10.560;2023-04-25T07:56:53;5.50;;;0.93;;
75990;SDS011;64673;52.276;10.560;2023-04-25T07:59:19;3.72;;;0.93;;
75990;SDS011;64673;52.276;10.560;2023-04-25T08:01:44;7.90;;;2.15;;
75990;SDS011;64673;52.276;10.560;2023-04-25T08:04:10;8.32;;;1.10;;
75990;SDS011;64673;52.276;10.560;2023-04-25T08:06:35;6.05;;;1.00;;
75990;SDS011;64673;52.276;10.560;2023-04-25T08:09:01;6.75;;;1.45;;
75990;SDS011;64673;52.276;10.560;2023-04-25T08:11:26;5.65;;;0.73;;
75990;SDS011;64673;52.276;10.560;2023-04-25T08:13:52;5.25;;;0.98;;
75990;SDS011;64673;52.276;10.560;2023-04-25T08:16:17;8.50;;;1.33;;
75990;SDS011;64673;52.276;10.560;2023-04-25T08:18:42;2.80;;;1.08;;
75990;SDS011;64673;52.276;10.560;2023-04-25T08:21:08;9.82;;;1.23;;
75990;SDS011;64673;52.276;10.560;2023-04-25T08:23:36;7.47;;;1.20;;
75990;SDS011;64673;52.276;10.560;2023-04-25T08:26:01;5.88;;;0.98;;
75990;SDS011;64673;52.276;10.560;2023-04-25T08:28:27;6.15;;;1.10;;
75990;SDS011;64673;52.276;10.560;2023-04-25T08:30:53;6.68;;;1.00;;
75990;SDS011;64673;52.276;10.560;2023-04-25T08:33:18;5.18;;;0.82;;
75990;SDS011;64673;52.276;10.560;2023-04-25T08:35:44;3.95;;;1.27;;
75990;SDS011;64673;52.276;10.560;2023-04-25T08:38:09;5.60;;;1.20;;
75990;SDS011;64673;52.276;10.560;2023-04-25T08:40:35;5.57;;;1.35;;
75990;SDS011;64673;52.276;10.560;2023-04-25T08:43:03;4.70;;;1.23;;
75990;SDS011;64673;52.276;10.560;2023-04-25T08:45:31;7.13;;;2.03;;
75990;SDS011;64673;52.276;10.560;2023-04-25T08:47:57;7.75;;;1.30;;
75990;SDS011;64673;52.276;10.560;2023-04-25T08:50:24;7.28;;;1.70;;
75990;SDS011;64673;52.276;10.560;2023-04-25T08:52:51;7.13;;;1.80;;
75990;SDS011;64673;52.276;10.560;2023-04-25T08:55:18;9.75;;;2.08;;
75990;SDS011;64673;52.276;10.560;2023-04-25T08:57:44;5.93;;;2.13;;
75990;SDS011;64673;52.276;10.560;2023-04-25T09:00:10;7.75;;;1.85;;
75990;SDS011;64673;52.276;10.560;2023-04-25T09:05:03;6.65;;;1.30;;
75990;SDS011;64673;52.276;10.560;2023-04-25T09:07:29;5.93;;;1.20;;
75990;SDS011;64673;52.276;10.560;2023-04-25T09:09:55;2.20;;;0.80;;
75990;SDS011;64673;52.276;10.560;2023-04-25T09:12:20;8.05;;;1.13;;
75990;SDS011;64673;52.276;10.560;2023-04-25T09:15:01;5.63;;;1.10;;
75990;SDS011;64673;52.276;10.560;2023-04-25T09:17:29;4.90;;;1.17;;
75990;SDS011;64673;52.276;10.560;2023-04-25T09:19:54;7.57;;;1.20;;
75990;SDS011;64673;52.276;10.560;2023-04-25T09:22:19;6.43;;;1.08;;
75990;SDS011;64673;52.276;10.560;2023-04-25T09:24:47;8.57;;;1.02;;
75990;SDS011;64673;52.276;10.560;2023-04-25T09:27:19;5.97;;;0.80;;
75990;SDS011;64673;52.276;10.560;2023-04-25T09:29:47;3.97;;;0.90;;
75990;SDS011;64673;52.276;10.560;2023-04-25T09:35:04;4.78;;;1.58;;
75990;SDS011;64673;52.276;10.560;2023-04-25T09:37:30;7.85;;;2.35;;
75990;SDS011;64673;52.276;10.560;2023-04-25T09:39:56;6.32;;;1.85;;
75990;SDS011;64673;52.276;10.560;2023-04-25T09:42:27;6.80;;;0.90;;
75990;SDS011;64673;52.276;10.560;2023-04-25T09:44:54;6.22;;;0.95;;
75990;SDS011;64673;52.276;10.560;2023-04-25T09:47:20;5.78;;;1.00;;
75990;SDS011;64673;52.276;10.560;2023-04-25T09:49:48;6.20;;;0.88;;
75990;SDS011;64673;52.276;10.560;2023-04-25T09:52:15;3.92;;;0.88;;
75990;SDS011;64673;52.276;10.560;2023-04-25T09:54:42;3.55;;;0.77;;
75990;SDS011;64673;52.276;10.560;2023-04-25T09:57:17;3.70;;;0.68;;
75990;SDS011;64673;52.276;10.560;2023-04-25T09:59:48;5.97;;;1.17;;
75990;SDS011;64673;52.276;10.560;2023-04-25T10:02:15;3.55;;;0.98;;
75990;SDS011;64673;52.276;10.560;2023-04-25T10:04:47;5.82;;;1.08;;
75990;SDS011;64673;52.276;10.560;2023-04-25T10:07:13;5.28;;;1.20;;
75990;SDS011;64673;52.276;10.560;2023-04-25T10:09:40;5.28;;;1.30;;
75990;SDS011;64673;52.276;10.560;2023-04-25T10:12:06;2.63;;;0.85;;
75990;SDS011;64673;52.276;10.560;2023-04-25T10:14:32;1.70;;;0.77;;
75990;SDS011;64673;52.276;10.560;2023-04-25T10:16:58;5.18;;;1.20;;
75990;SDS011;64673;52.276;10.560;2023-04-25T10:19:25;5.07;;;0.80;;
75990;SDS011;64673;52.276;10.560;2023-04-25T10:22:10;5.13;;;1.00;;
75990;SDS011;64673;52.276;10.560;2023-04-25T10:24:39;4.13;;;0.85;;
75990;SDS011;64673;52.276;10.560;2023-04-25T10:27:06;4.20;;;0.75;;
75990;SDS011;64673;52.276;10.560;2023-04-25T10:29:32;8.65;;;0.82;;
75990;SDS011;64673;52.276;10.560;2023-04-25T10:31:57;4.82;;;1.15;;
75990;SDS011;64673;52.276;10.560;2023-04-25T10:34:23;5.78;;;1.42;;
75990;SDS011;64673;52.276;10.560;2023-04-25T10:37:03;6.30;;;1.25;;
75990;SDS011;64673;52.276;10.560;2023-04-25T10:39:28;3.33;;;0.82;;
75990;SDS011;64673;52.276;10.560;2023-04-25T10:41:57;4.78;;;1.05;;
75990;SDS011;64673;52.276;10.560;2023-04-25T10:44:27;6.93;;;1.10;;
75990;SDS011;64673;52.276;10.560;2023-04-25T10:46:57;4.68;;;1.55;;
75990;SDS011;64673;52.276;10.560;2023-04-25T10:49:30;5.30;;;1.25;;
75990;SDS011;64673;52.276;10.560;2023-04-25T10:54:49;6.65;;;1.00;;
75990;SDS011;64673;52.276;10.560;2023-04-25T10:59:59;3.22;;;0.80;;
75990;SDS011;64673;52.276;10.560;2023-04-25T11:02:53;4.07;;;0.60;;
75990;SDS011;64673;52.276;10.560;2023-04-25T11:07:52;1.08;;;0.60;;
75990;SDS011;64673;52.276;10.560;2023-04-25T11:10:25;2.25;;;0.70;;
75990;SDS011;64673;52.276;10.560;2023-04-25T11:17:42;2.10;;;0.53;;
75990;SDS011;64673;52.276;10.560;2023-04-25T11:20:09;5.50;;;0.85;;
75990;SDS011;64673;52.276;10.560;2023-04-25T11:22:37;2.97;;;0.52;;
75990;SDS011;64673;52.276;10.560;2023-04-25T11:25:06;6.38;;;0.80;;
75990;SDS011;64673;52.276;10.560;2023-04-25T11:27:55;3.25;;;0.80;;
75990;SDS011;64673;52.276;10.560;2023-04-25T11:30:22;3.35;;;0.80;;
75990;SDS011;64673;52.276;10.560;2023-04-25T11:32:49;3.70;;;1.02;;
75990;SDS011;64673;52.276;10.560;2023-04-25T11:35:15;4.97;;;1.02;;
75990;SDS011;64673;52.276;10.560;2023-04-25T11:37:41;8.85;;;1.00;;
75990;SDS011;64673;52.276;10.560;2023-04-25T11:40:07;4.97;;;0.90;;
75990;SDS011;64673;52.276;10.560;2023-04-25T11:42:43;4.47;;;0.70;;
75990;SDS011;64673;52.276;10.560;2023-04-25T11:45:10;5.22;;;0.82;;
75990;SDS011;64673;52.276;10.560;2023-04-25T11:47:36;2.97;;;0.93;;
75990;SDS011;64673;52.276;10.560;2023-04-25T11:50:05;5.80;;;1.63;;
75990;SDS011;64673;52.276;10.560;2023-04-25T11:52:36;3.58;;;0.85;;
75990;SDS011;64673;52.276;10.560;2023-04-25T11:55:04;4.35;;;0.95;;
75990;SDS011;64673;52.276;10.560;2023-04-25T11:57:33;3.47;;;0.73;;
75990;SDS011;64673;52.276;10.560;2023-04-25T12:00:05;2.58;;;0.80;;
75990;SDS011;64673;52.276;10.560;2023-04-25T12:02:37;6.72;;;1.25;;
75990;SDS011;64673;52.276;10.560;2023-04-25T12:05:06;9.75;;;1.30;;
75990;SDS011;64673;52.276;10.560;2023-04-25T12:07:33;2.83;;;0.70;;
75990;SDS011;64673;52.276;10.560;2023-04-25T12:09:58;6.88;;;0.95;;
75990;SDS011;64673;52.276;10.560;2023-04-25T12:12:27;2.97;;;0.70;;
75990;SDS011;64673;52.276;10.560;2023-04-25T12:14:56;1.63;;;0.40;;
75990;SDS011;64673;52.276;10.560;2023-04-25T12:17:34;1.95;;;0.40;;
75990;SDS011;64673;52.276;10.560;2023-04-25T12:20:00;3.20;;;0.88;;
75990;SDS011;64673;52.276;10.560;2023-04-25T12:22:32;3.10;;;0.70;;
75990;SDS011;64673;52.276;10.560;2023-04-25T12:24:57;3.97;;;0.60;;
75990;SDS011;64673;52.276;10.560;2023-04-25T12:27:23;3.40;;;0.57;;
75990;SDS011;64673;52.276;10.560;2023-04-25T12:32:17;2.67;;;0.80;;
75990;SDS011;64673;52.276;10.560;2023-04-25T12:34:42;5.38;;;0.93;;
75990;SDS011;64673;52.276;10.560;2023-04-25T12:37:08;4.22;;;0.93;;
75990;SDS011;64673;52.276;10.560;2023-04-25T12:39:33;2.38;;;0.45;;
75990;SDS011;64673;52.276;10.560;2023-04-25T12:41:59;3.85;;;0.40;;
75990;SDS011;64673;52.276;10.560;2023-04-25T12:44:24;4.32;;;0.90;;
75990;SDS011;64673;52.276;10.560;2023-04-25T12:46:50;3.45;;;1.20;;
75990;SDS011;64673;52.276;10.560;2023-04-25T12:49:15;1.45;;;0.50;;
75990;SDS011;64673;52.276;10.560;2023-04-25T12:51:41;4.25;;;1.95;;
75990;SDS011;64673;52.276;10.560;2023-04-25T12:54:06;3.65;;;1.10;;
75990;SDS011;64673;52.276;10.560;2023-04-25T12:56:33;3.30;;;0.50;;
75990;SDS011;64673;52.276;10.560;2023-04-25T12:58:59;2.90;;;0.80;;
75990;SDS011;64673;52.276;10.560;2023-04-25T13:01:25;3.78;;;0.52;;
75990;SDS011;64673;52.276;10.560;2023-04-25T13:03:51;2.97;;;0.40;;
75990;SDS011;64673;52.276;10.560;2023-04-25T13:06:17;2.38;;;0.70;;
75990;SDS011;64673;52.276;10.560;2023-04-25T13:08:43;4.53;;;1.08;;
75990;SDS011;64673;52.276;10.560;2023-04-25T13:11:09;3.10;;;1.27;;
75990;SDS011;64673;52.276;10.560;2023-04-25T13:13:34;1.92;;;0.63;;
75990;SDS011;64673;52.276;10.560;2023-04-25T13:16:04;1.27;;;0.40;;
75990;SDS011;64673;52.276;10.560;2023-04-25T13:18:30;1.85;;;0.63;;
75990;SDS011;64673;52.276;10.560;2023-04-25T13:20:56;4.90;;;1.00;;
75990;SDS011;64673;52.276;10.560;2023-04-25T13:23:22;1.83;;;0.43;;
75990;SDS011;64673;52.276;10.560;2023-04-25T13:25:48;2.88;;;0.65;;
75990;SDS011;64673;52.276;10.560;2023-04-25T13:28:13;2.33;;;0.47;;
75990;SDS011;64673;52.276;10.560;2023-04-25T13:30:39;3.55;;;0.80;;
75990;SDS011;64673;52.276;10.560;2023-04-25T13:33:05;3.55;;;0.90;;
75990;SDS011;64673;52.276;10.560;2023-04-25T13:35:31;3.38;;;0.80;;
75990;SDS011;64673;52.276;10.560;2023-04-25T13:37:57;8.10;;;3.13;;
75990;SDS011;64673;52.276;10.560;2023-04-25T13:40:23;1.38;;;0.52;;
75990;SDS011;64673;52.276;10.560;2023-04-25T13:42:48;3.10;;;0.60;;
75990;SDS011;64673;52.276;10.560;2023-04-25T13:45:13;1.38;;;0.55;;
75990;SDS011;64673;52.276;10.560;2023-04-25T13:47:39;23.42;;;9.27;;
75990;SDS011;64673;52.276;10.560;2023-04-25T13:50:05;22.83;;;6.63;;
75990;SDS011;64673;52.276;10.560;2023-04-25T13:52:32;2.00;;;1.00;;
75990;SDS011;64673;52.276;10.560;2023-04-25T13:54:57;5.30;;;1.40;;
75990;SDS011;64673;52.276;10.560;2023-04-25T13:57:23;1.95;;;0.40;;
75990;SDS011;64673;52.276;10.560;2023-04-25T13:59:48;3.63;;;0.30;;
75990;SDS011;64673;52.276;10.560;2023-04-25T14:02:13;0.57;;;0.20;;
75990;SDS011;64673;52.276;10.560;2023-04-25T14:04:40;1.10;;;0.22;;
75990;SDS011;64673;52.276;10.560;2023-04-25T14:07:05;2.47;;;0.50;;
75990;SDS011;64673;52.276;10.560;2023-04-25T14:09:31;2.47;;;0.40;;
75990;SDS011;64673;52.276;10.560;2023-04-25T14:11:56;1.77;;;0.22;;
75990;SDS011;64673;52.276;10.560;2023-04-25T14:14:23;1.75;;;0.40;;
75990;SDS011;64673;52.276;10.560;2023-04-25T14:16:49;3.33;;;0.22;;
75990;SDS011;64673;52.276;10.560;2023-04-25T14:19:15;0.90;;;0.20;;
75990;SDS011;64673;52.276;10.560;2023-04-25T14:21:43;1.60;;;0.22;;
75990;SDS011;64673;52.276;10.560;2023-04-25T14:24:09;8.10;;;0.57;;
75990;SDS011;64673;52.276;10.560;2023-04-25T14:26:36;1.92;;;0.30;;
75990;SDS011;64673;52.276;10.560;2023-04-25T14:29:01;2.30;;;0.52;;
75990;SDS011;64673;52.276;10.560;2023-04-25T14:31:27;4.95;;;0.73;;
75990;SDS011;64673;52.276;10.560;2023-04-25T14:33:53;4.95;;;1.77;;
75990;SDS011;64673;52.276;10.560;2023-04-25T14:36:18;2.40;;;0.70;;
75990;SDS011;64673;52.276;10.560;2023-04-25T14:38:43;3.28;;;0.43;;
75990;SDS011;64673;52.276;10.560;2023-04-25T14:41:09;3.28;;;0.57;;
75990;SDS011;64673;52.276;10.560;2023-04-25T14:43:35;5.00;;;0.60;;
75990;SDS011;64673;52.276;10.560;2023-04-25T14:46:01;2.95;;;0.45;;
75990;SDS011;64673;52.276;10.560;2023-04-25T14:48:27;2.17;;;0.73;;